Overview Statistics Trail Chart Weather Telemetry Raw packets
 

This is the latest recevied weather packets stored in our database for station/object KK7MLS-13. If no packets are shown the sender has not sent any weather packets the latest 10 day(s).

<< 74 75 76 77 78 79 80 >>
Time Temp. Humidity Pressure Rain* Wind** Luminosity Snow
1788144135 19.44° C 58% 1016.5 hPa 0 mm - 5 W/m² -
1788143834 20° C 57% 1016.6 hPa 0 mm - 7 W/m² -
1788143533 20° C 56% 1016.6 hPa 0 mm - 8 W/m² -
1788143229 20° C 56% 1016.6 hPa 0 mm - 10 W/m² -
1788142923 20° C 55% 1016.4 hPa 0 mm - 11 W/m² -
1788142622 20.56° C 55% 1016.6 hPa 0 mm - 13 W/m² -
1788142317 20.56° C 55% 1016.6 hPa 0 mm - 15 W/m² -
1788142014 20.56° C 53% 1016.6 hPa 0 mm - 16 W/m² -
1788141707 21.11° C 54% 1016.6 hPa 0 mm - 17 W/m² -
1788141403 21.11° C 52% 1016.6 hPa 0 mm - 19 W/m² -
1788141103 21.67° C 51% 1016.8 hPa 0 mm - 20 W/m² -
1788140798 22.78° C 48% 1016.8 hPa 0 mm - 25 W/m² -
1788140493 23.33° C 48% 1016.9 hPa 0 mm - 25 W/m² -
1788140190 24.44° C 43% 1016.6 hPa 0 mm - 24 W/m² -
1788139889 25° C 43% 1016.9 hPa 0 mm - 25 W/m² -
1788139584 25.56° C 41% 1016.9 hPa 0 mm - 44 W/m² -
1788139279 25.56° C 42% 1016.9 hPa 0 mm - 95 W/m² -
1788138973 26.11° C 41% 1016.9 hPa 0 mm - 28 W/m² -
1788138669 26.11° C 40% 1016.7 hPa 0 mm - 31 W/m² -
1788138364 26.67° C 39% 1017.1 hPa 0 mm - 131 W/m² -
1788138060 26.67° C 40% 1017.1 hPa 0 mm - 30 W/m² -
1788137759 26.11° C 40% 1017.2 hPa 0 mm - 158 W/m² -
1788137454 26.11° C 40% 1017.2 hPa 0 mm - 162 W/m² -
1788137150 26.67° C 39% 1017 hPa 0 mm - 146 W/m² -
1788136861 26.67° C 41% 1017.2 hPa 0 mm - 200 W/m² -

* Rain latest hour (hover to see other rain measurements)
** Current wind speed in m/s (hover to see current wind gust speed)